Time;durP1;ratioP1;P1;durP2;ratioP2;P2;SDS_P1;SDS_P2;PMS_P1;PMS_P2;Temp;Humidity;BMP_temperature;BMP_pressure;BME280_temperature;BME280_humidity;BME280_pressure;Samples;Min_cycle;Max_cycle;Signal;HPM_P1;HPM_P2
2021/11/14 00:00:47;;;;;;;22.05;18.83;;;;;;;9.95;100.00;101615.84;5032175;28;20075;-53
2021/11/14 00:03:17;;;;;;;22.80;19.27;;;;;;;9.95;100.00;101617.75;5032636;28;20618;-51
2021/11/14 00:05:44;;;;;;;24.58;18.90;;;;;;;9.87;100.00;101619.00;5032437;28;20549;-52
2021/11/14 00:08:14;;;;;;;25.80;20.38;;;;;;;9.89;100.00;101616.03;5032224;28;20431;-52
2021/11/14 00:10:45;;;;;;;25.13;19.65;;;;;;;9.93;100.00;101625.34;5030895;28;20484;-53
2021/11/14 00:13:14;;;;;;;23.60;19.55;;;;;;;9.98;100.00;101625.44;5032584;28;20068;-51
2021/11/14 00:15:42;;;;;;;25.55;20.00;;;;;;;10.02;100.00;101623.88;5021098;28;20092;-52
2021/11/14 00:18:09;;;;;;;24.15;18.85;;;;;;;10.01;100.00;101624.97;5032521;28;20049;-52
2021/11/14 00:20:37;;;;;;;26.77;20.00;;;;;;;9.99;100.00;101624.38;5031993;28;20096;-51
2021/11/14 00:23:05;;;;;;;23.60;19.02;;;;;;;10.01;100.00;101622.25;5025552;28;20053;-55
2021/11/14 00:25:33;;;;;;;24.90;18.38;;;;;;;9.99;100.00;101629.81;5031779;28;20527;-51
2021/11/14 00:28:06;;;;;;;24.27;17.90;;;;;;;9.95;100.00;101639.53;5032021;28;20108;-49
2021/11/14 00:30:41;;;;;;;26.85;19.30;;;;;;;9.95;100.00;101628.66;5030855;28;20133;-53
2021/11/14 00:33:11;;;;;;;22.55;17.65;;;;;;;9.95;100.00;101634.09;5027759;28;20041;-53
2021/11/14 00:35:41;;;;;;;25.42;17.58;;;;;;;9.91;100.00;101638.38;5032212;28;20041;-53
2021/11/14 00:38:09;;;;;;;22.17;17.45;;;;;;;9.88;100.00;101638.84;5031822;28;20096;-50
2021/11/14 00:40:38;;;;;;;23.98;18.40;;;;;;;9.89;100.00;101644.06;5031301;28;20040;-50
2021/11/14 00:43:06;;;;;;;22.13;17.45;;;;;;;9.92;100.00;101637.31;5031802;28;20048;-52
2021/11/14 00:45:35;;;;;;;19.63;16.73;;;;;;;9.91;100.00;101647.38;5031983;28;20042;-52
2021/11/14 00:48:03;;;;;;;20.02;17.40;;;;;;;9.90;100.00;101655.78;5031959;28;20523;-53
2021/11/14 00:50:32;;;;;;;22.20;18.00;;;;;;;9.87;100.00;101659.00;5031255;28;20053;-52
2021/11/14 00:53:00;;;;;;;23.08;17.27;;;;;;;9.81;100.00;101661.63;5020982;28;20489;-54
2021/11/14 00:55:31;;;;;;;20.52;15.50;;;;;;;9.71;100.00;101655.97;5029166;28;20037;-52
2021/11/14 00:57:59;;;;;;;20.92;16.13;;;;;;;9.74;100.00;101655.50;5031986;28;20045;-49
2021/11/14 01:00:28;;;;;;;21.90;17.10;;;;;;;9.76;100.00;101657.97;5031550;28;20420;-54
2021/11/14 01:02:56;;;;;;;20.63;16.17;;;;;;;9.79;100.00;101661.03;5031892;28;20080;-51
2021/11/14 01:05:25;;;;;;;20.90;18.00;;;;;;;9.79;100.00;101660.22;5031426;28;20116;-51
2021/11/14 01:07:53;;;;;;;18.63;16.63;;;;;;;9.74;100.00;101665.53;5031633;28;20041;-56
2021/11/14 01:10:25;;;;;;;20.70;16.80;;;;;;;9.69;100.00;101663.56;5031190;28;20045;-53
2021/11/14 01:12:53;;;;;;;20.20;16.75;;;;;;;9.62;100.00;101668.31;5027942;28;20522;-52
2021/11/14 01:15:22;;;;;;;20.45;16.30;;;;;;;9.63;100.00;101671.84;5031792;28;20041;-52
2021/11/14 01:17:50;;;;;;;20.58;16.70;;;;;;;9.66;100.00;101674.91;5031664;28;20049;-49
2021/11/14 01:20:20;;;;;;;22.95;17.83;;;;;;;9.68;100.00;101675.50;5031121;28;20489;-50
2021/11/14 01:22:49;;;;;;;18.75;14.55;;;;;;;9.66;100.00;101668.66;5026356;28;20399;-52
2021/11/14 01:25:17;;;;;;;18.48;15.68;;;;;;;9.69;100.00;101670.88;5035446;28;20053;-52
2021/11/14 01:27:45;;;;;;;21.50;17.15;;;;;;;9.70;100.00;101678.81;5035084;28;20044;-51
2021/11/14 01:30:18;;;;;;;23.67;17.38;;;;;;;9.66;100.00;101677.63;5034747;28;20046;-51
2021/11/14 01:32:46;;;;;;;19.35;16.80;;;;;;;9.69;100.00;101687.19;5025972;28;20132;-53
2021/11/14 01:35:14;;;;;;;22.75;18.30;;;;;;;9.67;100.00;101686.59;5034776;28;20042;-54
2021/11/14 01:37:43;;;;;;;22.45;18.38;;;;;;;9.65;100.00;101697.75;5034597;28;20050;-52
2021/11/14 01:40:15;;;;;;;21.35;17.15;;;;;;;9.64;100.00;101693.38;5034648;28;20033;-54
2021/11/14 01:42:43;;;;;;;21.77;18.25;;;;;;;9.66;100.00;101696.69;5035084;28;20049;-51
2021/11/14 01:45:12;;;;;;;23.30;17.88;;;;;;;9.59;100.00;101694.06;5035129;28;20049;-49
2021/11/14 01:47:40;;;;;;;22.48;18.02;;;;;;;9.59;100.00;101695.97;5034758;28;20044;-52
2021/11/14 01:50:11;;;;;;;23.15;18.20;;;;;;;9.56;100.00;101700.00;5034371;28;20458;-52
2021/11/14 01:52:40;;;;;;;21.75;18.40;;;;;;;9.55;100.00;101697.53;5034281;28;20042;-53
2021/11/14 01:55:10;;;;;;;20.55;16.25;;;;;;;9.53;100.00;101700.50;5034401;28;20037;-52
2021/11/14 01:57:37;;;;;;;23.70;18.10;;;;;;;9.54;100.00;101704.03;5034755;28;20125;-53
2021/11/14 02:00:12;;;;;;;19.38;17.10;;;;;;;9.60;100.00;101716.69;5034687;28;20053;-51
2021/11/14 02:02:43;;;;;;;19.02;15.07;;;;;;;9.57;100.00;101709.84;5026223;28;20060;-53
2021/11/14 02:05:11;;;;;;;21.95;18.23;;;;;;;9.53;100.00;101714.09;5034400;28;20136;-53
2021/11/14 02:07:39;;;;;;;20.50;17.15;;;;;;;9.47;100.00;101706.06;5020712;28;20431;-55
2021/11/14 02:10:09;;;;;;;20.27;17.35;;;;;;;9.46;100.00;101712.56;5034260;28;20396;-49
2021/11/14 02:12:38;;;;;;;19.40;16.58;;;;;;;9.52;100.00;101717.03;5024531;28;20561;-52
2021/11/14 02:15:06;;;;;;;21.10;17.40;;;;;;;9.52;100.00;101717.88;5034302;28;20061;-53
2021/11/14 02:17:34;;;;;;;20.52;16.63;;;;;;;9.56;100.00;101723.69;5034005;28;20049;-55
2021/11/14 02:20:03;;;;;;;20.27;16.48;;;;;;;9.58;100.00;101727.00;5033796;28;20077;-55
2021/11/14 02:22:30;;;;;;;19.27;16.17;;;;;;;9.57;100.00;101719.88;5033924;28;20132;-55
2021/11/14 02:24:58;;;;;;;21.05;16.80;;;;;;;9.57;100.00;101725.31;5034171;28;20076;-53
2021/11/14 02:27:26;;;;;;;17.88;14.23;;;;;;;9.49;100.00;101728.41;5034080;28;20047;-54
2021/11/14 02:29:54;;;;;;;19.58;16.35;;;;;;;9.46;100.00;101734.34;5033709;28;20523;-53
2021/11/14 02:32:21;;;;;;;18.55;15.52;;;;;;;9.42;100.00;101728.53;5032474;28;20038;-50
2021/11/14 02:35:10;;;;;;;17.52;14.38;;;;;;;9.37;100.00;101737.41;5022236;28;20447;-49
2021/11/14 02:37:38;;;;;;;18.85;15.45;;;;;;;9.33;100.00;101738.97;5033774;28;20052;-55
2021/11/14 02:40:08;;;;;;;18.10;14.32;;;;;;;9.26;100.00;101742.84;5028075;28;20049;-52
2021/11/14 02:42:36;;;;;;;18.83;14.77;;;;;;;9.25;100.00;101752.91;5027290;28;20049;-55
2021/11/14 02:45:05;;;;;;;21.23;15.18;;;;;;;9.23;100.00;101749.59;5029105;28;20045;-52
2021/11/14 02:47:34;;;;;;;19.02;15.45;;;;;;;9.26;100.00;101746.41;5033571;28;20049;-53
2021/11/14 02:50:03;;;;;;;19.90;15.10;;;;;;;9.28;100.00;101744.25;5033572;28;20404;-53
2021/11/14 02:52:31;;;;;;;18.75;16.02;;;;;;;9.32;100.00;101745.44;5026725;28;20096;-51
2021/11/14 02:54:59;;;;;;;18.33;14.57;;;;;;;9.33;100.00;101749.84;5033527;28;20041;-53
2021/11/14 02:57:27;;;;;;;19.02;15.75;;;;;;;9.33;100.00;101754.44;5033352;28;20061;-52
2021/11/14 02:59:55;;;;;;;20.45;15.98;;;;;;;9.34;100.00;101746.03;5033536;28;20048;-52
2021/11/14 03:02:22;;;;;;;22.45;16.00;;;;;;;9.36;100.00;101746.63;5026128;28;20040;-49
2021/11/14 03:04:51;;;;;;;17.92;15.25;;;;;;;9.39;100.00;101756.22;5032861;28;20710;-49
2021/11/14 03:07:19;;;;;;;19.90;16.42;;;;;;;9.42;100.00;101757.63;5033303;28;20048;-54
2021/11/14 03:09:46;;;;;;;18.58;15.43;;;;;;;9.37;100.00;101755.63;5033318;28;20050;-53
2021/11/14 03:12:14;;;;;;;19.15;16.05;;;;;;;9.31;100.00;101757.41;5021894;28;20422;-52
2021/11/14 03:15:00;;;;;;;21.27;16.88;;;;;;;9.30;100.00;101768.50;5033332;28;20087;-53
2021/11/14 03:17:28;;;;;;;20.70;17.10;;;;;;;9.26;100.00;101764.59;5032740;28;20036;-53
2021/11/14 03:19:56;;;;;;;19.67;16.13;;;;;;;9.22;100.00;101772.41;5032750;28;20129;-51
2021/11/14 03:22:23;;;;;;;19.23;15.98;;;;;;;9.23;100.00;101774.06;5029772;28;20041;-52
2021/11/14 03:24:53;;;;;;;20.35;15.93;;;;;;;9.16;100.00;101778.78;5033086;28;20041;-52
2021/11/14 03:27:23;;;;;;;19.48;16.05;;;;;;;9.23;100.00;101778.66;5031449;28;20415;-53
2021/11/14 03:29:51;;;;;;;20.90;16.35;;;;;;;9.26;100.00;101781.75;5032823;28;20041;-54
2021/11/14 03:32:19;;;;;;;20.38;16.88;;;;;;;9.27;100.00;101774.44;5025011;28;20108;-52
2021/11/14 03:34:46;;;;;;;19.65;16.20;;;;;;;9.22;100.00;101777.84;5032333;28;20122;-51
2021/11/14 03:37:17;;;;;;;18.83;16.13;;;;;;;9.18;100.00;101782.09;5032727;28;20046;-52
2021/11/14 03:39:45;;;;;;;19.25;15.38;;;;;;;9.13;100.00;101782.78;5032906;28;20049;-53
2021/11/14 03:42:13;;;;;;;20.08;16.77;;;;;;;9.18;100.00;101782.09;5032827;28;20037;-54
2021/11/14 03:44:44;;;;;;;19.90;15.93;;;;;;;9.21;100.00;101788.94;5032076;28;20052;-51
2021/11/14 03:47:12;;;;;;;21.48;16.65;;;;;;;9.19;100.00;101797.38;5032685;28;20049;-55
2021/11/14 03:49:40;;;;;;;19.05;15.63;;;;;;;9.15;100.00;101794.28;5032664;28;20064;-55
2021/11/14 03:52:09;;;;;;;19.88;16.95;;;;;;;9.23;100.00;101800.44;5032527;28;20131;-49
2021/11/14 03:54:37;;;;;;;21.45;17.42;;;;;;;9.32;100.00;101812.63;5032366;28;20105;-55
2021/11/14 03:57:25;;;;;;;21.40;18.05;;;;;;;9.31;100.00;101814.53;5032038;28;20136;-53
2021/11/14 03:59:52;;;;;;;25.38;18.10;;;;;;;9.25;100.00;101807.28;5032167;28;20037;-52
2021/11/14 04:02:20;;;;;;;24.55;17.67;;;;;;;9.18;100.00;101814.72;5031749;28;20041;-54
2021/11/14 04:04:48;;;;;;;24.48;17.73;;;;;;;9.15;100.00;101826.06;5032198;28;20037;-54
2021/11/14 04:07:16;;;;;;;25.65;18.85;;;;;;;9.17;100.00;101823.97;5032441;28;20037;-51
2021/11/14 04:09:43;;;;;;;21.50;18.10;;;;;;;9.18;100.00;101822.88;5032440;28;20420;-55
2021/11/14 04:12:11;;;;;;;24.33;19.58;;;;;;;9.21;100.00;101819.69;5031949;28;20056;-52
2021/11/14 04:14:39;;;;;;;23.55;19.30;;;;;;;9.19;100.00;101816.41;5032106;28;20038;-54
2021/11/14 04:17:06;;;;;;;24.70;18.65;;;;;;;9.21;100.00;101824.31;5031280;28;20049;-55
2021/11/14 04:19:34;;;;;;;24.55;18.95;;;;;;;9.24;100.00;101816.53;5032388;28;20053;-55
2021/11/14 04:22:02;;;;;;;27.02;20.95;;;;;;;9.25;100.00;101820.06;5026622;28;20053;-51
2021/11/14 04:24:30;;;;;;;26.20;20.92;;;;;;;9.21;100.00;101822.41;5032533;28;20435;-53
2021/11/14 04:26:57;;;;;;;29.83;21.30;;;;;;;9.19;100.00;101821.84;5030444;28;20420;-52
2021/11/14 04:29:25;;;;;;;28.95;19.52;;;;;;;9.18;100.00;101820.16;5032152;28;20377;-52
2021/11/14 04:31:52;;;;;;;29.88;21.50;;;;;;;9.24;100.00;101826.56;5028123;28;20054;-55
2021/11/14 04:34:20;;;;;;;32.97;23.95;;;;;;;9.26;100.00;101822.56;5030828;28;20048;-55
2021/11/14 04:36:48;;;;;;;37.03;25.65;;;;;;;9.25;100.00;101831.75;5031765;28;20496;-54
2021/11/14 04:39:15;;;;;;;30.40;22.15;;;;;;;9.22;100.00;101831.41;5032150;28;20060;-48
2021/11/14 04:41:43;;;;;;;30.58;23.33;;;;;;;9.24;100.00;101824.69;5025666;28;20069;-56
2021/11/14 04:44:11;;;;;;;33.85;24.48;;;;;;;9.27;100.00;101829.63;5027442;28;20052;-53
2021/11/14 04:46:38;;;;;;;32.03;23.75;;;;;;;9.31;100.00;101824.56;5031651;28;20500;-55
2021/11/14 04:49:06;;;;;;;34.17;25.13;;;;;;;9.28;100.00;101825.03;5031669;28;20046;-50
2021/11/14 04:51:33;;;;;;;38.20;26.05;;;;;;;9.29;100.00;101827.50;5030457;28;20037;-54
2021/11/14 04:54:01;;;;;;;34.38;26.05;;;;;;;9.25;100.00;101826.31;5031796;28;20562;-55
2021/11/14 04:56:29;;;;;;;30.35;22.55;;;;;;;9.26;100.00;101829.88;5033423;28;20396;-53
2021/11/14 04:58:56;;;;;;;36.45;26.25;;;;;;;9.30;100.00;101840.03;5035206;28;20412;-54
2021/11/14 05:01:24;;;;;;;31.58;24.35;;;;;;;9.35;100.00;101840.16;5035318;28;20038;-55
2021/11/14 05:03:52;;;;;;;32.90;23.85;;;;;;;9.38;100.00;101837.00;5025589;28;20049;-49
2021/11/14 05:06:20;;;;;;;31.83;24.17;;;;;;;9.41;100.00;101849.28;5035836;28;20053;-54
2021/11/14 05:08:48;;;;;;;37.15;26.70;;;;;;;9.43;100.00;101849.03;5035224;28;20514;-53
2021/11/14 05:11:16;;;;;;;37.30;26.27;;;;;;;9.39;100.00;101849.50;5029684;28;20049;-53
2021/11/14 05:13:44;;;;;;;32.08;23.02;;;;;;;9.39;100.00;101854.97;5035114;28;20397;-53
2021/11/14 05:16:11;;;;;;;34.38;24.98;;;;;;;9.39;100.00;101862.28;5035562;28;20045;-52
2021/11/14 05:18:39;;;;;;;34.80;26.45;;;;;;;9.39;100.00;101860.41;5034965;28;20446;-53
2021/11/14 05:21:10;;;;;;;34.33;24.75;;;;;;;9.37;100.00;101861.69;5035744;28;20404;-52
2021/11/14 05:23:38;;;;;;;35.08;26.02;;;;;;;9.38;100.00;101875.06;5035086;28;20037;-53
2021/11/14 05:26:06;;;;;;;32.15;23.27;;;;;;;9.42;100.00;101869.97;5034981;28;20526;-49
2021/11/14 05:28:33;;;;;;;36.30;26.75;;;;;;;9.41;100.00;101883.84;5034921;28;20033;-51
2021/11/14 05:31:01;;;;;;;34.78;25.45;;;;;;;9.38;100.00;101879.69;5035405;28;20037;-52
2021/11/14 05:33:29;;;;;;;36.42;24.90;;;;;;;9.39;100.00;101876.72;5030003;28;20128;-54
2021/11/14 05:35:56;;;;;;;35.65;26.67;;;;;;;9.40;100.00;101882.97;5035174;28;20037;-54
2021/11/14 05:38:25;;;;;;;34.90;24.48;;;;;;;9.42;100.00;101890.91;5035492;28;20045;-52
2021/11/14 05:40:53;;;;;;;34.28;25.27;;;;;;;9.45;100.00;101885.00;5034381;28;20048;-55
2021/11/14 05:43:21;;;;;;;30.45;22.38;;;;;;;9.45;100.00;101885.81;5035014;28;20048;-53
2021/11/14 05:45:48;;;;;;;34.20;23.55;;;;;;;9.47;100.00;101893.75;5034799;28;20439;-52
2021/11/14 05:48:16;;;;;;;37.47;27.25;;;;;;;9.48;100.00;101901.69;5034808;28;20518;-55
2021/11/14 05:50:43;;;;;;;37.55;26.73;;;;;;;9.47;100.00;101902.75;5029434;28;20088;-53
2021/11/14 05:53:11;;;;;;;35.40;25.70;;;;;;;9.46;100.00;101903.81;5034400;28;20045;-49
2021/11/14 05:55:39;;;;;;;34.55;25.67;;;;;;;9.45;100.00;101895.88;5034294;28;20058;-53
2021/11/14 05:58:12;;;;;;;33.75;24.15;;;;;;;9.48;100.00;101900.88;5034300;28;20049;-52
2021/11/14 06:01:05;;;;;;;35.88;27.40;;;;;;;9.42;100.00;101907.25;5034324;28;20046;-54
2021/11/14 06:06:01;;;;;;;35.65;26.40;;;;;;;9.41;100.00;101917.28;5034859;28;20041;-53
2021/11/14 06:08:28;;;;;;;32.03;23.65;;;;;;;9.37;100.00;101916.91;5033257;28;20033;-52
2021/11/14 06:10:57;;;;;;;31.88;23.90;;;;;;;9.35;100.00;101913.59;5033874;28;20045;-53
2021/11/14 06:13:27;;;;;;;36.67;24.83;;;;;;;9.31;100.00;101917.88;5034238;28;20439;-56
2021/11/14 06:15:55;;;;;;;28.33;21.48;;;;;;;9.31;100.00;101917.88;5034344;28;20392;-55
2021/11/14 06:18:23;;;;;;;33.95;23.13;;;;;;;9.31;100.00;101917.88;5034431;28;20083;-53
2021/11/14 06:20:50;;;;;;;32.67;23.63;;;;;;;9.32;100.00;101918.69;5033853;28;20053;-49
2021/11/14 06:23:18;;;;;;;35.42;25.27;;;;;;;9.36;100.00;101931.59;5034180;28;20408;-53
2021/11/14 06:25:46;;;;;;;31.35;24.23;;;;;;;9.30;100.00;101927.06;5032978;28;20034;-56
2021/11/14 06:28:13;;;;;;;33.35;23.67;;;;;;;9.21;100.00;101923.00;5033874;28;20103;-53
2021/11/14 06:30:41;;;;;;;33.28;24.83;;;;;;;9.10;100.00;101931.97;5033604;28;20038;-52
2021/11/14 06:33:09;;;;;;;36.92;25.38;;;;;;;9.02;100.00;101943.16;5032586;28;20527;-52
2021/11/14 06:35:37;;;;;;;34.70;25.35;;;;;;;9.00;100.00;101942.59;5034002;28;20075;-52
2021/11/14 06:38:05;;;;;;;38.13;26.90;;;;;;;8.99;100.00;101949.88;5034194;28;20033;-52
2021/11/14 06:40:32;;;;;;;33.83;25.50;;;;;;;8.99;100.00;101951.78;5033729;28;20041;-52
2021/11/14 06:43:00;;;;;;;32.30;24.73;;;;;;;8.99;100.00;101957.22;5033626;28;20056;-51
2021/11/14 06:45:27;;;;;;;33.03;24.55;;;;;;;9.01;100.00;101955.94;5033870;28;20401;-52
2021/11/14 06:47:55;;;;;;;34.50;25.75;;;;;;;9.00;100.00;101975.22;5033649;28;20116;-53
2021/11/14 06:50:23;;;;;;;34.92;25.52;;;;;;;9.00;100.00;101976.03;5031609;28;20500;-51
2021/11/14 06:52:50;;;;;;;33.65;24.40;;;;;;;9.02;100.00;101973.91;5033306;28;20072;-55
2021/11/14 06:55:19;;;;;;;30.38;23.67;;;;;;;9.03;100.00;101981.00;5033173;28;20064;-54
2021/11/14 06:57:47;;;;;;;34.58;24.15;;;;;;;8.99;100.00;101987.13;5033344;28;20508;-53
2021/11/14 07:00:18;;;;;;;33.25;24.45;;;;;;;9.02;100.00;101995.66;5033406;28;20052;-54
2021/11/14 07:02:46;;;;;;;31.40;23.40;;;;;;;8.98;100.00;102004.50;5032916;28;20435;-53
2021/11/14 07:05:14;;;;;;;31.38;22.52;;;;;;;9.00;100.00;102007.81;5033438;28;20101;-53
2021/11/14 07:07:42;;;;;;;30.88;22.23;;;;;;;9.02;100.00;102000.25;5032798;28;20118;-53
2021/11/14 07:10:13;;;;;;;30.60;24.35;;;;;;;9.00;100.00;102011.38;5029655;28;20041;-52
2021/11/14 07:12:41;;;;;;;27.77;22.13;;;;;;;8.98;100.00;102007.22;5033021;28;20045;-53
2021/11/14 07:15:12;;;;;;;29.38;22.33;;;;;;;8.97;100.00;102003.66;5023451;28;20046;-55
2021/11/14 07:17:40;;;;;;;28.00;22.23;;;;;;;8.99;100.00;102011.59;5033080;28;20048;-52
2021/11/14 07:20:09;;;;;;;28.40;22.15;;;;;;;9.04;100.00;102009.00;5029455;28;20045;-52
2021/11/14 07:22:36;;;;;;;31.80;21.67;;;;;;;9.07;100.00;102016.72;5023960;28;20048;-52
2021/11/14 07:25:05;;;;;;;27.90;21.63;;;;;;;9.06;100.00;102013.16;5024698;28;20049;-54
2021/11/14 07:27:33;;;;;;;27.95;21.45;;;;;;;9.07;100.00;102024.88;5031082;28;20073;-52
2021/11/14 07:30:01;;;;;;;26.60;18.38;;;;;;;9.10;100.00;102027.13;5032428;28;20046;-53
2021/11/14 07:32:28;;;;;;;24.73;18.58;;;;;;;9.11;100.00;102031.50;5031961;28;20046;-52
2021/11/14 07:34:56;;;;;;;24.00;18.95;;;;;;;9.01;100.00;102031.22;5032699;28;20041;-54
2021/11/14 07:37:23;;;;;;;26.55;19.63;;;;;;;8.95;100.00;102032.97;5030252;28;20377;-54
2021/11/14 07:39:51;;;;;;;24.42;18.23;;;;;;;8.99;100.00;102036.88;5020856;28;20041;-55
2021/11/14 07:42:18;;;;;;;25.75;18.95;;;;;;;9.04;100.00;102041.63;5033236;28;20049;-53
2021/11/14 07:44:47;;;;;;;22.83;17.95;;;;;;;9.08;100.00;102049.09;5032961;28;20041;-55
2021/11/14 07:47:15;;;;;;;22.15;16.10;;;;;;;9.13;100.00;102051.97;5033697;28;20477;-51
2021/11/14 07:49:43;;;;;;;23.30;17.55;;;;;;;9.09;100.00;102060.81;5032508;28;20482;-56
2021/11/14 07:52:10;;;;;;;19.10;14.25;;;;;;;9.07;100.00;102058.34;5031981;28;20045;-56
2021/11/14 07:54:38;;;;;;;22.42;16.92;;;;;;;9.04;100.00;102066.09;5031611;28;20411;-52
2021/11/14 07:57:07;;;;;;;20.95;16.58;;;;;;;8.99;100.00;102071.41;5031421;28;20167;-54
2021/11/14 07:59:34;;;;;;;23.95;17.80;;;;;;;9.03;100.00;102080.75;5031898;28;20045;-56
2021/11/14 08:02:02;;;;;;;19.85;15.75;;;;;;;9.04;100.00;102085.13;5031159;28;20095;-51
2021/11/14 08:04:30;;;;;;;21.63;15.95;;;;;;;8.99;100.00;102087.69;5031066;28;20045;-52
2021/11/14 08:06:58;;;;;;;19.35;14.82;;;;;;;9.02;100.00;102088.09;5031561;28;20057;-52
2021/11/14 08:09:26;;;;;;;19.63;14.88;;;;;;;9.05;100.00;102097.69;5032010;28;20036;-51
2021/11/14 08:11:53;;;;;;;19.98;14.88;;;;;;;9.08;100.00;102092.63;5031900;28;20037;-50
2021/11/14 08:14:21;;;;;;;19.00;14.50;;;;;;;9.08;100.00;102099.94;5031376;28;20037;-52
2021/11/14 08:16:49;;;;;;;19.15;14.52;;;;;;;9.04;100.00;102101.44;5032063;28;20045;-52
2021/11/14 08:19:16;;;;;;;19.48;13.63;;;;;;;8.99;100.00;102104.00;5031361;28;20124;-51
2021/11/14 08:21:44;;;;;;;20.60;14.23;;;;;;;8.95;100.00;102109.91;5030978;28;20128;-52
2021/11/14 08:24:12;;;;;;;19.77;14.50;;;;;;;8.96;100.00;102110.72;5031472;28;20408;-50
2021/11/14 08:26:39;;;;;;;19.35;13.52;;;;;;;9.01;100.00;102112.78;5031882;28;20049;-52
2021/11/14 08:29:07;;;;;;;18.83;13.98;;;;;;;9.06;100.00;102118.38;5031190;28;20048;-52
2021/11/14 08:31:35;;;;;;;18.30;14.18;;;;;;;9.13;100.00;102124.56;5029213;28;20378;-53
2021/11/14 08:34:03;;;;;;;17.95;13.77;;;;;;;9.15;100.00;102123.28;5031684;28;20404;-54
2021/11/14 08:36:32;;;;;;;18.10;12.63;;;;;;;9.13;100.00;102130.81;5031401;28;20049;-53
2021/11/14 08:39:00;;;;;;;19.90;14.45;;;;;;;9.20;100.00;102132.66;5030898;28;20041;-52
2021/11/14 08:41:28;;;;;;;19.20;14.25;;;;;;;9.18;100.00;102135.59;5025108;28;20034;-52
2021/11/14 08:43:56;;;;;;;24.98;15.15;;;;;;;9.20;100.00;102143.53;5029056;28;20053;-51
2021/11/14 08:46:24;;;;;;;19.33;15.35;;;;;;;9.20;100.00;102136.19;5030743;28;20120;-52
2021/11/14 08:48:53;;;;;;;22.23;15.63;;;;;;;9.21;100.00;102146.00;5030363;28;20050;-51
2021/11/14 08:51:21;;;;;;;20.70;15.48;;;;;;;9.25;100.00;102149.94;5030928;28;20038;-49
2021/11/14 08:53:50;;;;;;;19.83;14.48;;;;;;;9.25;100.00;102147.22;5031311;28;20903;-52
2021/11/14 08:56:17;;;;;;;21.92;15.50;;;;;;;9.28;100.00;102149.47;5028896;28;20052;-52
2021/11/14 08:58:45;;;;;;;18.65;13.70;;;;;;;9.26;100.00;102148.91;5030155;28;20042;-51
2021/11/14 09:01:13;;;;;;;21.05;16.42;;;;;;;9.26;100.00;102154.34;5031527;28;20048;-51
2021/11/14 09:03:41;;;;;;;24.02;15.50;;;;;;;9.24;100.00;102161.06;5029558;28;20049;-51
2021/11/14 09:06:09;;;;;;;23.67;15.05;;;;;;;9.31;100.00;102161.81;5027259;28;20053;-52
2021/11/14 09:08:37;;;;;;;21.92;15.90;;;;;;;9.36;100.00;102160.06;5029939;28;20067;-52
2021/11/14 09:11:04;;;;;;;21.60;15.60;;;;;;;9.36;99.69;102170.97;5030857;28;20515;-49
2021/11/14 09:13:32;;;;;;;20.55;15.55;;;;;;;9.32;100.00;102179.78;5031241;28;20066;-52
2021/11/14 09:16:00;;;;;;;23.17;17.13;;;;;;;9.31;100.00;102181.69;5029845;28;20045;-52
2021/11/14 09:18:29;;;;;;;23.00;16.63;;;;;;;9.36;100.00;102176.41;5030978;28;20044;-49
2021/11/14 09:20:56;;;;;;;24.27;16.75;;;;;;;9.28;99.54;102187.56;5028554;28;20132;-52
2021/11/14 09:23:27;;;;;;;22.10;17.08;;;;;;;9.27;100.00;102191.34;5022471;28;20041;-52
2021/11/14 09:25:56;;;;;;;18.27;13.45;;;;;;;9.26;100.00;102197.00;5030201;28;20053;-52
2021/11/14 09:28:24;;;;;;;22.05;16.20;;;;;;;9.22;100.00;102193.09;5029752;28;20056;-53
2021/11/14 09:30:52;;;;;;;20.98;15.40;;;;;;;9.27;100.00;102201.41;5029669;28;20120;-54
2021/11/14 09:33:26;;;;;;;18.05;12.85;;;;;;;9.30;99.94;102196.31;5031199;28;20052;-51
2021/11/14 09:35:55;;;;;;;23.27;16.23;;;;;;;9.27;99.81;102199.50;5024938;28;20128;-53
2021/11/14 09:38:23;;;;;;;21.40;16.52;;;;;;;9.19;99.96;102213.41;5019483;28;20034;-53
2021/11/14 09:40:52;;;;;;;23.65;15.70;;;;;;;9.19;100.00;102205.25;5030758;28;20083;-51
2021/11/14 09:43:20;;;;;;;20.65;13.75;;;;;;;9.27;100.00;102204.94;5032243;28;20046;-54
2021/11/14 09:45:50;;;;;;;20.90;15.48;;;;;;;9.35;100.00;102212.78;5034430;28;20112;-51
2021/11/14 09:48:20;;;;;;;22.13;16.35;;;;;;;9.34;99.35;102213.88;5032699;28;20100;-53
2021/11/14 09:50:49;;;;;;;21.23;15.45;;;;;;;9.33;99.50;102214.09;5032557;28;20465;-54
2021/11/14 09:53:17;;;;;;;21.77;16.17;;;;;;;9.34;99.90;102218.47;5033525;28;20056;-51
2021/11/14 09:55:45;;;;;;;21.50;15.60;;;;;;;9.38;99.64;102216.97;5032493;28;20141;-51
2021/11/14 09:58:13;;;;;;;23.27;16.80;;;;;;;9.44;99.52;102226.13;5033699;28;20045;-52
2021/11/14 10:00:41;;;;;;;19.65;14.75;;;;;;;9.48;99.37;102220.00;5031821;28;20116;-48
2021/11/14 10:03:10;;;;;;;20.70;16.00;;;;;;;9.53;99.25;102230.22;5029812;28;20041;-51
2021/11/14 10:05:40;;;;;;;22.23;16.17;;;;;;;9.55;98.89;102222.66;5031652;28;20041;-51
2021/11/14 10:08:09;;;;;;;24.80;17.27;;;;;;;9.56;98.64;102229.75;5028097;28;20053;-51
2021/11/14 10:10:45;;;;;;;21.58;16.50;;;;;;;9.49;98.40;102220.81;5038370;28;20037;-50
2021/11/14 10:13:16;;;;;;;24.02;17.48;;;;;;;9.38;99.12;102225.16;5034297;28;20034;-51
2021/11/14 10:15:46;;;;;;;20.52;16.63;;;;;;;9.40;99.23;102231.16;5034072;28;20514;-53
2021/11/14 10:18:13;;;;;;;22.63;16.50;;;;;;;9.37;99.69;102237.06;5033631;28;20048;-51
2021/11/14 10:20:41;;;;;;;23.50;18.10;;;;;;;9.36;99.71;102240.84;5034317;28;20037;-51
2021/11/14 10:23:17;;;;;;;22.95;16.02;;;;;;;9.31;99.41;102244.25;5032918;28;20385;-47
2021/11/14 10:25:47;;;;;;;23.33;15.85;;;;;;;9.37;99.38;102248.78;5034421;28;20112;-48
2021/11/14 10:28:14;;;;;;;26.73;16.60;;;;;;;9.42;99.00;102250.00;5033715;28;20120;-51
2021/11/14 10:30:44;;;;;;;23.23;16.40;;;;;;;9.42;99.29;102248.09;5033539;28;20062;-49
2021/11/14 10:33:15;;;;;;;22.52;15.98;;;;;;;9.44;99.12;102246.00;5033879;28;20052;-49
2021/11/14 10:35:45;;;;;;;21.35;15.95;;;;;;;9.47;99.40;102247.44;5033776;28;20037;-50
2021/11/14 10:38:16;;;;;;;22.23;16.58;;;;;;;9.52;98.92;102250.28;5032630;28;20041;-53
2021/11/14 10:40:48;;;;;;;22.73;15.85;;;;;;;9.52;98.40;102250.28;5033762;28;20523;-52
2021/11/14 10:43:17;;;;;;;20.98;15.55;;;;;;;9.54;98.23;102257.16;5033631;28;20045;-51
2021/11/14 10:45:45;;;;;;;23.45;16.30;;;;;;;9.54;98.32;102253.63;5025168;28;20052;-51
2021/11/14 10:48:19;;;;;;;22.23;16.50;;;;;;;9.59;98.90;102259.22;5033011;28;20412;-50
2021/11/14 10:50:49;;;;;;;25.33;18.88;;;;;;;9.67;98.94;102261.66;5033606;28;20053;-52
2021/11/14 10:53:19;;;;;;;19.90;13.35;;;;;;;9.71;98.67;102265.56;5021078;28;20091;-51
2021/11/14 10:55:56;;;;;;;21.27;15.43;;;;;;;9.72;97.85;102263.72;5023545;28;20073;-52
2021/11/14 10:58:26;;;;;;;25.83;18.25;;;;;;;9.70;98.19;102263.91;5022492;28;20065;-51
2021/11/14 11:01:00;;;;;;;27.95;18.52;;;;;;;9.70;97.90;102263.91;5029343;28;20060;-50
2021/11/14 11:03:36;;;;;;;21.90;15.95;;;;;;;9.69;98.34;102267.72;5022480;28;20095;-51
2021/11/14 11:06:07;;;;;;;24.02;15.93;;;;;;;9.72;98.00;102266.44;5031710;28;20512;-51
2021/11/14 11:08:36;;;;;;;21.55;15.27;;;;;;;9.72;97.71;102267.25;5032775;28;20579;-54
2021/11/14 11:11:25;;;;;;;20.98;15.57;;;;;;;9.69;97.45;102269.56;5032809;28;20041;-51
2021/11/14 11:13:54;;;;;;;18.38;13.30;;;;;;;9.71;97.61;102276.47;5022979;28;20049;-50
2021/11/14 11:16:30;;;;;;;20.83;14.90;;;;;;;9.73;97.26;102279.78;5031603;28;20045;-50
2021/11/14 11:19:04;;;;;;;19.35;14.15;;;;;;;9.71;97.57;102276.47;5032760;28;20041;-51